UKBBUKLL

Guest
Details From UKBB - Boryspil
To UKLL - Lviv Intl
Flight Number -
Tags Generated
Created
Modified
Stats Distance 271 nm / 501 km
Max Altitude 0 ft / 0 m
Waypoints 3
Social Downloads 0
Likes 0
Share VATSIM

Download

Looking for another format? Having issues loading an existing format? Contact us
Advertisement - Login to hide

Notes

Generated

Route

UKBB LIV UKLL

ID Type Via Altitude Latitude Longitude Leg Dist Tot Dist Heading (true) Name
O UKBB APT - 0 ft / 0 m 50.36056˚ 30.90660˚ - 0 nm - -
LIV VOR - 0 ft / 0 m 49.81160˚ 23.95097˚ 269 nm 269 nm 266° / 260° LVIV VOR-DME
O UKLL APT - 0 ft / 0 m 49.82083˚ 23.94389˚ 0 nm 270 nm 334° / 334° -

Altitude Profile

Advertisement - Login to hide

Weather


0- 5 10 15 20 25 30 35+ Temperature / ° C

Clouds and Precipitation
Forecast for 2018-05-23 18:00 UTC. Updated 4 hours ago

Ground ~20,000 ft ~40,000 ft Winds

UKBB

Details ICAO UKBB (KBP)
Name Boryspil
Region Ukraine
Timezone Europe/Kiev (UTC+3.0)
Stats Elevation 421 ft / 128 m (AMSL)
Location 50.339472° 30.892903°
Runways 2
Magnetic Variation 7.720° E

METAR

UKBB 232030Z 05001MPS CAVOK 15/10 Q1020 R88/D NOSIG

Decode

TAF

TAF TAF UKBB 231700Z 2318/2418 VRB02MPS 9999 SCT040 TX28/2413Z TN11/2403Z TEMPO 2321/2405 2000 BR SCT006 BECMG 2405/2407 02004G09MPS 9999 BKN030 TEMPO 2409/2418 2100 -SHRA BKN012 SCT025CB PROB40 TEMPO 2410/2418 VRB10G15MPS 1200 TSRA BKN007 BKN015CB

Decode

Departure Runways

ID Width Length Bearing (true) Bearing (mag) Surface Threshold Offset Overrun Length
18L 197 ft / 60 m 13,152 ft / 4,009 m 182.72° 175.00° Concrete 0 ft / 0 m 295 ft / 90 m
18R 207 ft / 63 m 11,470 ft / 3,496 m 182.62° 174.90° Concrete 0 ft / 0 m 164 ft / 50 m
36L 207 ft / 63 m 11,470 ft / 3,496 m 2.62° 354.90° Concrete 0 ft / 0 m 164 ft / 50 m
36R 197 ft / 60 m 13,152 ft / 4,009 m 2.72° 355.00° Concrete 0 ft / 0 m 295 ft / 90 m

UKLL

Details ICAO UKLL (LWO)
Name LVIV INTL
Region Ukraine
Timezone Europe/Kiev (UTC+3.0)
Stats Elevation 1,071 ft / 326 m (AMSL)
Location 49.812638° 23.956111°
Runways 1
Magnetic Variation 6.152° E

METAR

UKLL 232030Z 04003MPS CAVOK 17/12 Q1020 R13/290055 NOSIG

Decode

TAF

Not found

Destination Runways

ID Width Length Bearing (true) Bearing (mag) Surface Threshold Offset Overrun Length
13 148 ft / 45 m 8,300 ft / 2,530 m 136.09° 129.94° Asphalt 0 ft / 0 m 160 ft / 49 m
31 148 ft / 45 m 8,300 ft / 2,530 m 316.11° 309.96° Asphalt 0 ft / 0 m 145 ft / 44 m

Approach Navaids

Runway Type Ident Frequency Range Bearing (true) Bearing (mag) Slope Elevation
13 Localiser ILO 109.50 MHz 18 nm / 33 km 135.94° 129.79° - 1,071 ft / 326 m (AMSL)
13 Glidescope ILO 109.50 MHz 10 nm / 19 km 136.10° 129.94° 3.00° 1,071 ft / 326 m (AMSL)
31 Localiser ILV 110.30 MHz 18 nm / 33 km 315.64° 309.49° - 1,071 ft / 326 m (AMSL)
31 Glidescope ILV 110.30 MHz 10 nm / 19 km 316.10° 309.94° 3.00° 1,071 ft / 326 m (AMSL)

Popular Alternatives